Aérodrome :
LOGIN :

S'inscrire | Disclaimer

   EN    FR    IT 

 










Légende :    VFR   VFR Marginal   IFR   IFR Intensif   IFR Très Intensif
Visi : 
Plafond : 
>= 8 km
>= 3000ft
5 à 8 km
1000 à 3000 ft
1500m à 5 km
500 à 1000 ft
800 à 1500m
200 à 500 ft
< 800m
< 200 ft
Symboles :   Orages  Brouillard  Fortes neiges  Fortes précipitations  Vent > 20 kt
SIGMETs :   Divers  Orages  Givrage  Turbulence  Onde Orograph.  Cendres Volcan.






- Altitude de l'aérodrome : 219 ft
- Code IATA : DNR


LFRD - Dinard

DERNIER METAR :
  • 160630Z AUTO VRB02KT 9000 NSC 05/03 Q1029 NOSIG

METARs EXPIRÉS :
  • 160600Z AUTO 06003KT 9000 NSC 04/02 Q1028 NOSIG
  • 160530Z AUTO 05004KT 9000 NSC 03/02 Q1028 NOSIG
  • 160500Z AUTO 03003KT CAVOK 03/01 Q1028 TEMPO 3000 BR
  • 160430Z AUTO 03005KT CAVOK 03/01 Q1028 TEMPO 3000 BR
  • 160400Z AUTO 05004KT CAVOK 04/02 Q1028 TEMPO 3000 BR

TAF TAF LFRD
Valide du 16 à 06h jusqu'au 17 à 06h UTC


160500Z 1606/1706 05005KT CAVOK
BECMG 1608/1610 05010KT
PROB40
TEMPO 1614/1620 02015G25KT
BECMG 1622/1624 VRB05KT
PROB40
TEMPO 1702/1706 3000 BR
ATIS : +33 2 99 16 81 50



MET'MAP, la Météo Aéronautique d'un coup d'oeil ! - Copyright ORBIFLY Décembre 2007 - Disclaimer

ORBIFLY MET'MAP TEAM :

Programmation & Développement : Alexandra Zaïnal
Sur une idée originale de : Baudouin d'Aumeries
Assistance à la programmation : Marc-Olivier Méhu
Soutien technique & logistique : Manuel Goepfert

Contact : metmap@orbifly.com




SOURCES & CREDITS :

   NOAA